createdAt,value
2023-03-27T00:02:11.730Z,6.79
2023-03-27T00:04:41.136Z,6.77
2023-03-27T00:07:09.268Z,6.74
2023-03-27T00:09:37.270Z,6.69
2023-03-27T00:12:04.969Z,6.67
2023-03-27T00:14:32.893Z,6.68
2023-03-27T00:17:00.454Z,6.64
2023-03-27T00:19:27.878Z,6.57
2023-03-27T00:21:56.207Z,6.48
2023-03-27T00:24:23.854Z,6.49
2023-03-27T00:26:52.145Z,6.42
2023-03-27T00:29:19.450Z,6.37
2023-03-27T00:31:47.035Z,6.37
2023-03-27T00:34:14.416Z,6.33
2023-03-27T00:36:43.773Z,6.29
2023-03-27T00:39:11.269Z,6.23
2023-03-27T00:41:38.617Z,6.18
2023-03-27T00:44:27.421Z,6.13
2023-03-27T00:46:57.162Z,6.07
2023-03-27T00:49:29.797Z,6.02
2023-03-27T00:51:59.101Z,6.00
2023-03-27T00:54:30.355Z,5.99
2023-03-27T00:57:10.837Z,5.97
2023-03-27T00:59:42.118Z,5.95
2023-03-27T01:02:10.183Z,5.89
2023-03-27T01:04:38.989Z,5.83
2023-03-27T01:07:07.536Z,5.82
2023-03-27T01:09:34.946Z,5.79
2023-03-27T01:12:23.786Z,5.80
2023-03-27T01:15:21.758Z,5.72
2023-03-27T01:17:52.340Z,5.74
2023-03-27T01:21:13.712Z,5.71
2023-03-27T01:24:21.023Z,5.65
2023-03-27T01:27:16.226Z,5.60
2023-03-27T01:30:10.386Z,5.51
2023-03-27T01:32:56.750Z,5.44
2023-03-27T01:35:42.410Z,5.38
2023-03-27T01:38:30.714Z,5.36
2023-03-27T01:41:27.264Z,5.30
2023-03-27T01:44:07.103Z,5.29
2023-03-27T01:47:08.229Z,5.25
2023-03-27T01:49:41.707Z,5.23
2023-03-27T01:52:15.576Z,5.19
2023-03-27T01:54:49.862Z,5.17
2023-03-27T01:57:24.908Z,5.12
2023-03-27T02:00:18.726Z,5.05
2023-03-27T02:03:00.345Z,4.98
2023-03-27T02:05:40.650Z,4.89
2023-03-27T02:08:40.555Z,4.77
2023-03-27T02:11:08.082Z,4.70
2023-03-27T02:13:56.624Z,4.58
2023-03-27T02:16:28.882Z,4.43
2023-03-27T02:19:03.117Z,4.36
2023-03-27T02:21:33.445Z,4.27
2023-03-27T02:24:02.457Z,4.22
2023-03-27T02:26:33.645Z,4.20
2023-03-27T02:29:24.608Z,4.10
2023-03-27T02:32:00.188Z,4.07
2023-03-27T02:34:57.057Z,3.95
2023-03-27T02:37:55.256Z,3.91
2023-03-27T02:40:43.084Z,3.84
2023-03-27T02:43:16.373Z,3.75
2023-03-27T02:46:21.730Z,3.67
2023-03-27T02:49:03.632Z,3.65
2023-03-27T02:52:08.025Z,3.61
2023-03-27T02:54:51.072Z,3.47
2023-03-27T02:57:26.577Z,3.43
2023-03-27T02:59:57.957Z,3.36
2023-03-27T03:02:30.564Z,3.32
2023-03-27T03:05:06.157Z,3.26
2023-03-27T03:07:34.916Z,3.24
2023-03-27T03:10:02.407Z,3.15
2023-03-27T03:12:29.692Z,3.09
2023-03-27T03:14:57.029Z,3.11
2023-03-27T03:17:24.416Z,3.10
2023-03-27T03:19:51.946Z,3.04
2023-03-27T03:22:19.290Z,3.02
2023-03-27T03:24:46.581Z,2.96
2023-03-27T03:27:14.373Z,2.92
2023-03-27T03:29:41.781Z,2.86
2023-03-27T03:32:09.092Z,2.85
2023-03-27T03:34:36.587Z,2.89
2023-03-27T03:37:03.864Z,2.81
2023-03-27T03:39:31.343Z,2.85
2023-03-27T03:41:58.653Z,2.75
2023-03-27T03:44:25.985Z,2.82
2023-03-27T03:46:53.285Z,2.72
2023-03-27T03:49:20.755Z,2.76
2023-03-27T03:51:48.423Z,2.76
2023-03-27T03:54:32.948Z,2.86
2023-03-27T03:57:00.320Z,2.83
2023-03-27T03:59:27.734Z,2.80
2023-03-27T04:01:55.115Z,2.74
2023-03-27T04:04:22.493Z,2.72
2023-03-27T04:06:49.855Z,2.75
2023-03-27T04:09:16.929Z,2.68
2023-03-27T04:11:44.303Z,2.65
2023-03-27T04:14:11.624Z,2.67
2023-03-27T04:16:38.954Z,2.61
2023-03-27T04:19:07.114Z,2.63
2023-03-27T04:21:34.510Z,2.54
2023-03-27T04:24:03.042Z,2.58
2023-03-27T04:26:30.993Z,2.51
2023-03-27T04:28:58.410Z,2.44
2023-03-27T04:31:26.251Z,2.48
2023-03-27T04:33:53.618Z,2.45
2023-03-27T04:36:21.042Z,2.44
2023-03-27T04:38:48.470Z,2.33
2023-03-27T04:41:15.446Z,2.42
2023-03-27T04:43:42.939Z,2.38
2023-03-27T04:46:10.449Z,2.41
2023-03-27T04:48:39.087Z,2.31
2023-03-27T04:51:08.343Z,2.33
2023-03-27T04:53:37.710Z,2.30
2023-03-27T04:56:06.448Z,2.29
2023-03-27T04:58:36.707Z,2.31
2023-03-27T05:01:05.683Z,2.29
2023-03-27T05:03:34.834Z,2.29
2023-03-27T05:06:04.350Z,2.26
2023-03-27T05:08:32.924Z,2.24
2023-03-27T05:11:00.400Z,2.25
2023-03-27T05:13:28.938Z,2.20
2023-03-27T05:15:59.320Z,2.27
2023-03-27T05:18:27.598Z,2.22
2023-03-27T05:20:55.287Z,2.15
2023-03-27T05:23:22.935Z,2.17
2023-03-27T05:25:59.375Z,2.13
2023-03-27T05:28:28.177Z,2.18
2023-03-27T05:30:57.104Z,2.15
2023-03-27T05:33:24.479Z,2.06
2023-03-27T05:35:52.566Z,2.07
2023-03-27T05:38:20.411Z,2.15
2023-03-27T05:40:47.872Z,2.15
2023-03-27T05:43:15.568Z,2.07
2023-03-27T05:45:43.025Z,2.11
2023-03-27T05:48:10.642Z,2.20
2023-03-27T05:50:37.638Z,2.22
2023-03-27T05:53:10.060Z,2.20
2023-03-27T05:55:38.352Z,2.22
2023-03-27T05:58:10.191Z,2.25
2023-03-27T06:00:38.789Z,2.41
2023-03-27T06:03:07.034Z,2.35
2023-03-27T06:05:34.692Z,2.40
2023-03-27T06:08:02.294Z,2.47
2023-03-27T06:10:30.625Z,2.50
2023-03-27T06:13:08.883Z,2.54
2023-03-27T06:15:39.383Z,2.65
2023-03-27T06:18:06.985Z,2.86
2023-03-27T06:20:35.608Z,2.89
2023-03-27T06:23:06.268Z,2.96
2023-03-27T06:25:35.209Z,3.04
2023-03-27T06:28:04.863Z,3.09
2023-03-27T06:30:32.262Z,3.09
2023-03-27T06:33:00.930Z,3.09
2023-03-27T06:35:31.039Z,3.16
2023-03-27T06:38:02.991Z,3.13
2023-03-27T06:40:32.191Z,3.10
2023-03-27T06:43:02.729Z,3.09
2023-03-27T06:45:45.561Z,3.14
2023-03-27T06:48:20.397Z,3.06
2023-03-27T06:50:51.426Z,3.07
2023-03-27T06:53:27.396Z,3.09
2023-03-27T06:55:56.867Z,3.01
2023-03-27T06:58:24.709Z,3.10
2023-03-27T07:00:52.216Z,3.25
2023-03-27T07:03:21.803Z,3.30
2023-03-27T07:05:49.740Z,3.44
2023-03-27T07:08:23.271Z,3.35
2023-03-27T07:11:07.897Z,3.55
2023-03-27T07:13:39.110Z,3.54
2023-03-27T07:16:07.125Z,3.66
2023-03-27T07:18:34.539Z,3.64
2023-03-27T07:21:01.924Z,3.73
2023-03-27T07:23:29.297Z,3.80
2023-03-27T07:26:01.420Z,3.90
2023-03-27T07:28:29.081Z,4.03
2023-03-27T07:30:56.670Z,4.02
2023-03-27T07:33:24.319Z,4.15
2023-03-27T07:35:51.934Z,4.08
2023-03-27T07:38:19.254Z,4.13
2023-03-27T07:40:46.783Z,4.22
2023-03-27T07:43:14.248Z,4.15
2023-03-27T07:45:50.631Z,4.26
2023-03-27T07:48:19.488Z,4.31
2023-03-27T07:50:47.856Z,4.45
2023-03-27T07:53:32.676Z,4.40
2023-03-27T07:56:01.478Z,4.51
2023-03-27T07:58:29.023Z,4.62
2023-03-27T08:01:02.220Z,4.71
2023-03-27T08:03:31.062Z,4.69
2023-03-27T08:06:01.222Z,4.77
2023-03-27T08:08:28.808Z,4.99
2023-03-27T08:10:57.161Z,5.00
2023-03-27T08:13:25.193Z,5.04
2023-03-27T08:15:52.972Z,4.75
2023-03-27T08:18:20.430Z,4.91
2023-03-27T08:20:48.465Z,4.78
2023-03-27T08:23:16.399Z,4.69
2023-03-27T08:25:43.788Z,4.66
2023-03-27T08:28:11.571Z,4.82
2023-03-27T08:30:38.919Z,4.91
2023-03-27T08:33:09.920Z,5.08
2023-03-27T08:35:37.348Z,5.37
2023-03-27T08:38:07.431Z,5.46
2023-03-27T08:40:48.135Z,5.59
2023-03-27T08:43:26.375Z,6.09
2023-03-27T08:46:06.446Z,6.01
2023-03-27T08:49:19.031Z,6.10
2023-03-27T08:52:04.283Z,5.66
2023-03-27T08:54:37.340Z,5.37
2023-03-27T08:57:21.417Z,5.31
2023-03-27T08:59:49.249Z,5.27
2023-03-27T09:02:48.490Z,5.41
2023-03-27T09:05:56.770Z,5.69
2023-03-27T09:09:04.143Z,6.29
2023-03-27T09:11:32.223Z,6.17
2023-03-27T09:14:07.747Z,6.47
2023-03-27T09:16:48.775Z,6.13
2023-03-27T09:19:47.596Z,5.80
2023-03-27T09:22:23.838Z,5.95
2023-03-27T09:24:55.127Z,5.79
2023-03-27T09:27:32.850Z,6.40
2023-03-27T09:30:15.496Z,6.66
2023-03-27T09:32:43.873Z,6.96
2023-03-27T09:35:15.619Z,7.30
2023-03-27T09:37:43.184Z,7.64
2023-03-27T09:40:30.784Z,7.37
2023-03-27T09:43:08.674Z,7.26
2023-03-27T09:45:40.858Z,7.17
2023-03-27T09:48:27.679Z,7.01
2023-03-27T09:50:55.459Z,6.76
2023-03-27T09:53:24.102Z,6.94
2023-03-27T09:56:04.855Z,6.96
2023-03-27T09:58:40.918Z,7.03
2023-03-27T10:01:16.565Z,6.94
2023-03-27T10:03:52.117Z,7.35
2023-03-27T10:06:48.233Z,6.89
2023-03-27T10:09:34.994Z,6.78
2023-03-27T10:12:08.159Z,6.79
2023-03-27T10:14:52.385Z,6.74
2023-03-27T10:17:37.445Z,6.93
2023-03-27T10:20:17.600Z,7.57
2023-03-27T10:22:56.795Z,7.55
2023-03-27T10:25:34.571Z,7.69
2023-03-27T10:28:30.708Z,8.26
2023-03-27T10:31:05.812Z,8.00
2023-03-27T10:33:37.045Z,7.67
2023-03-27T10:36:08.143Z,7.98
2023-03-27T10:38:38.618Z,7.62
2023-03-27T10:41:28.572Z,7.97
2023-03-27T10:43:57.491Z,8.16
2023-03-27T10:46:29.204Z,7.96
2023-03-27T10:48:56.891Z,8.08
2023-03-27T10:51:45.578Z,7.94
2023-03-27T10:54:35.121Z,8.01
2023-03-27T10:57:17.007Z,8.00
2023-03-27T10:59:55.905Z,7.68
2023-03-27T11:02:40.867Z,7.81
2023-03-27T11:05:26.783Z,8.39
2023-03-27T11:07:55.983Z,8.43
2023-03-27T11:10:29.477Z,8.32
2023-03-27T11:13:23.356Z,8.30
2023-03-27T11:16:03.963Z,8.10
2023-03-27T11:18:40.526Z,8.02
2023-03-27T11:21:35.088Z,7.12
2023-03-27T11:24:04.183Z,7.00
2023-03-27T11:26:51.593Z,6.88
2023-03-27T11:29:29.653Z,6.23
2023-03-27T11:32:06.283Z,5.58
2023-03-27T11:34:57.830Z,5.32
2023-03-27T11:37:34.502Z,5.27
2023-03-27T11:40:27.164Z,5.33
2023-03-27T11:42:54.737Z,5.28
2023-03-27T11:45:25.137Z,5.83
2023-03-27T11:48:37.609Z,6.64
2023-03-27T11:51:29.840Z,6.47
2023-03-27T11:54:20.484Z,7.09
2023-03-27T11:56:56.383Z,7.01
2023-03-27T11:59:59.822Z,7.47
2023-03-27T12:02:36.429Z,8.23
2023-03-27T12:05:25.253Z,8.23
2023-03-27T12:08:12.030Z,7.93
2023-03-27T12:10:43.777Z,8.03
2023-03-27T12:13:38.608Z,8.21
2023-03-27T12:16:30.325Z,8.37
2023-03-27T12:19:38.511Z,8.12
2023-03-27T12:22:24.007Z,8.50
2023-03-27T12:24:59.455Z,8.39
2023-03-27T12:27:54.478Z,8.27
2023-03-27T12:30:45.918Z,8.36
2023-03-27T12:33:43.091Z,7.96
2023-03-27T12:36:20.819Z,8.05
2023-03-27T12:38:49.079Z,7.64
2023-03-27T12:41:29.347Z,6.21
2023-03-27T12:44:06.868Z,4.85
2023-03-27T12:46:40.853Z,4.24
2023-03-27T12:49:08.751Z,4.01
2023-03-27T12:51:48.353Z,3.98
2023-03-27T12:54:39.216Z,4.37
2023-03-27T12:57:15.010Z,4.37
2023-03-27T12:59:56.125Z,5.17
2023-03-27T13:02:39.450Z,5.93
2023-03-27T13:05:37.441Z,6.59
2023-03-27T13:08:13.465Z,7.19
2023-03-27T13:11:18.560Z,7.22
2023-03-27T13:13:49.270Z,7.93
2023-03-27T13:16:35.661Z,8.48
2023-03-27T13:19:20.571Z,8.08
2023-03-27T13:22:05.182Z,7.33
2023-03-27T13:25:14.648Z,7.13
2023-03-27T13:27:47.968Z,6.78
2023-03-27T13:30:41.888Z,6.53
2023-03-27T13:33:29.069Z,6.88
2023-03-27T13:36:02.797Z,7.75
2023-03-27T13:38:55.021Z,7.50
2023-03-27T13:41:46.651Z,8.60
2023-03-27T13:44:34.209Z,9.12
2023-03-27T13:47:16.154Z,9.73
2023-03-27T13:50:39.163Z,8.32
2023-03-27T13:53:37.844Z,8.50
2023-03-27T13:56:25.929Z,8.95
2023-03-27T13:59:29.789Z,9.23
2023-03-27T14:02:16.509Z,10.25
2023-03-27T14:05:22.968Z,10.33
2023-03-27T14:08:26.556Z,8.89
2023-03-27T14:11:41.965Z,8.77
2023-03-27T14:14:41.515Z,9.18
2023-03-27T14:17:47.528Z,8.59
2023-03-27T14:20:26.051Z,8.54
2023-03-27T14:23:07.406Z,8.85
2023-03-27T14:25:38.413Z,8.81
2023-03-27T14:28:10.322Z,8.39
2023-03-27T14:30:48.416Z,8.29
2023-03-27T14:33:20.575Z,8.12
2023-03-27T14:35:56.740Z,8.32
2023-03-27T14:38:33.308Z,8.41
2023-03-27T14:41:04.387Z,8.40
2023-03-27T14:43:32.268Z,8.09
2023-03-27T14:46:04.405Z,8.03
2023-03-27T14:48:37.318Z,8.15
2023-03-27T14:51:17.474Z,7.96
2023-03-27T14:53:49.765Z,8.01
2023-03-27T14:56:37.410Z,7.69
2023-03-27T14:59:11.974Z,7.77
2023-03-27T15:01:40.152Z,7.75
2023-03-27T15:04:11.420Z,7.74
2023-03-27T15:06:39.536Z,8.91
2023-03-27T15:09:19.306Z,9.61
2023-03-27T15:11:55.895Z,10.04
2023-03-27T15:14:29.179Z,10.32
2023-03-27T15:17:19.328Z,9.84
2023-03-27T15:19:56.140Z,10.52
2023-03-27T15:22:37.822Z,10.87
2023-03-27T15:25:07.305Z,10.84
2023-03-27T15:27:40.183Z,11.34
2023-03-27T15:30:30.717Z,11.07
2023-03-27T15:33:06.056Z,11.08
2023-03-27T15:35:39.098Z,11.06
2023-03-27T15:38:13.046Z,11.52
2023-03-27T15:40:43.408Z,11.68
2023-03-27T15:43:13.618Z,11.46
2023-03-27T15:45:44.208Z,10.93
2023-03-27T15:48:21.295Z,10.69
2023-03-27T15:51:04.161Z,10.69
2023-03-27T15:53:43.251Z,10.54
2023-03-27T15:56:38.894Z,10.37
2023-03-27T15:59:09.830Z,10.32
2023-03-27T16:01:44.167Z,10.64
2023-03-27T16:04:15.995Z,10.12
2023-03-27T16:06:47.340Z,9.78
2023-03-27T16:09:23.358Z,9.70
2023-03-27T16:11:54.246Z,9.69
2023-03-27T16:14:33.088Z,9.74
2023-03-27T16:17:28.537Z,9.83
2023-03-27T16:20:08.177Z,10.26
2023-03-27T16:22:38.113Z,10.16
2023-03-27T16:25:12.210Z,10.69
2023-03-27T16:28:13.572Z,10.96
2023-03-27T16:30:42.037Z,10.09
2023-03-27T16:33:20.032Z,9.88
2023-03-27T16:35:50.417Z,9.78
2023-03-27T16:38:18.623Z,9.89
2023-03-27T16:40:46.200Z,9.74
2023-03-27T16:43:15.196Z,9.38
2023-03-27T16:45:45.193Z,9.04
2023-03-27T16:48:15.594Z,8.89
2023-03-27T16:50:43.440Z,8.73
2023-03-27T16:53:11.414Z,8.63
2023-03-27T16:55:38.910Z,7.74
2023-03-27T16:58:06.370Z,7.40
2023-03-27T17:00:33.775Z,7.18
2023-03-27T17:03:01.126Z,6.95
2023-03-27T17:05:33.955Z,7.44
2023-03-27T17:08:02.252Z,7.82
2023-03-27T17:10:31.094Z,7.83
2023-03-27T17:12:58.487Z,7.80
2023-03-27T17:15:25.940Z,7.83
2023-03-27T17:17:53.322Z,7.44
2023-03-27T17:20:20.706Z,7.42
2023-03-27T17:22:48.078Z,7.38
2023-03-27T17:25:15.659Z,7.30
2023-03-27T17:27:43.203Z,7.19
2023-03-27T17:30:11.192Z,7.13
2023-03-27T17:32:38.747Z,7.21
2023-03-27T17:35:06.483Z,7.02
2023-03-27T17:37:35.812Z,7.03
2023-03-27T17:40:06.496Z,7.11
2023-03-27T17:42:33.846Z,6.86
2023-03-27T17:45:01.284Z,6.53
2023-03-27T17:47:28.695Z,6.37
2023-03-27T17:49:56.003Z,6.31
2023-03-27T17:52:23.704Z,6.13
2023-03-27T17:54:51.473Z,5.43
2023-03-27T17:57:18.839Z,5.24
2023-03-27T17:59:46.507Z,5.02
2023-03-27T18:02:21.730Z,4.82
2023-03-27T18:04:52.304Z,4.88
2023-03-27T18:07:21.341Z,4.96
2023-03-27T18:09:49.455Z,4.94
2023-03-27T18:12:17.519Z,4.96
2023-03-27T18:14:45.210Z,4.83
2023-03-27T18:17:13.883Z,4.86
2023-03-27T18:19:41.503Z,4.89
2023-03-27T18:22:08.839Z,4.85
2023-03-27T18:24:36.165Z,4.83
2023-03-27T18:27:03.482Z,4.70
2023-03-27T18:29:31.043Z,4.58
2023-03-27T18:31:59.320Z,4.61
2023-03-27T18:34:26.855Z,4.57
2023-03-27T18:36:54.530Z,4.50
2023-03-27T18:39:22.259Z,4.50
2023-03-27T18:41:49.636Z,4.37
2023-03-27T18:44:18.245Z,4.34
2023-03-27T18:46:45.625Z,4.44
2023-03-27T18:49:23.700Z,4.41
2023-03-27T18:51:51.890Z,4.53
2023-03-27T18:54:19.278Z,4.64
2023-03-27T18:56:47.551Z,4.46
2023-03-27T18:59:15.616Z,4.39
2023-03-27T19:01:44.287Z,4.36
2023-03-27T19:04:13.605Z,4.33
2023-03-27T19:06:42.480Z,4.17
2023-03-27T19:09:09.789Z,4.09
2023-03-27T19:11:38.299Z,4.27
2023-03-27T19:14:05.728Z,4.14
2023-03-27T19:16:33.785Z,3.98
2023-03-27T19:19:02.737Z,3.96
2023-03-27T19:21:30.331Z,4.02
2023-03-27T19:23:57.716Z,3.89
2023-03-27T19:26:24.845Z,3.84
2023-03-27T19:28:52.880Z,3.76
2023-03-27T19:31:20.454Z,3.78
2023-03-27T19:33:47.522Z,3.73
2023-03-27T19:36:15.858Z,3.59
2023-03-27T19:38:43.220Z,3.60
2023-03-27T19:41:11.398Z,3.44
2023-03-27T19:43:38.785Z,3.59
2023-03-27T19:46:15.860Z,3.56
2023-03-27T19:48:45.677Z,3.47
2023-03-27T19:51:13.152Z,3.33
2023-03-27T19:53:41.890Z,3.28
2023-03-27T19:56:09.391Z,3.33
2023-03-27T19:58:36.693Z,3.19
2023-03-27T20:01:04.717Z,3.14
2023-03-27T20:03:33.292Z,3.10
2023-03-27T20:06:07.079Z,3.07
2023-03-27T20:08:38.214Z,3.10
2023-03-27T20:11:07.302Z,3.05
2023-03-27T20:13:42.562Z,3.08
2023-03-27T20:16:16.963Z,2.83
2023-03-27T20:18:44.383Z,2.55
2023-03-27T20:21:15.898Z,2.80
2023-03-27T20:23:43.558Z,3.00
2023-03-27T20:26:10.960Z,2.95
2023-03-27T20:28:38.600Z,2.94
2023-03-27T20:31:06.667Z,2.95
2023-03-27T20:33:33.898Z,2.90
2023-03-27T20:36:01.463Z,2.99
2023-03-27T20:38:31.589Z,2.92
2023-03-27T20:41:03.899Z,2.95
2023-03-27T20:43:35.508Z,3.12
2023-03-27T20:46:04.578Z,3.10
2023-03-27T20:48:54.103Z,2.77
2023-03-27T20:51:24.398Z,2.84
2023-03-27T20:53:56.691Z,2.83
2023-03-27T20:56:24.549Z,2.67
2023-03-27T20:58:51.972Z,2.55
2023-03-27T21:01:19.815Z,2.62
2023-03-27T21:03:49.692Z,2.57
2023-03-27T21:06:20.631Z,2.57
2023-03-27T21:08:48.114Z,2.60
2023-03-27T21:11:15.736Z,2.51
2023-03-27T21:13:43.156Z,2.48
2023-03-27T21:16:10.536Z,2.39
2023-03-27T21:18:37.946Z,2.24
2023-03-27T21:21:05.887Z,2.09
2023-03-27T21:23:34.652Z,1.96
2023-03-27T21:26:02.300Z,1.98
2023-03-27T21:28:29.791Z,1.82
2023-03-27T21:30:57.026Z,1.80
2023-03-27T21:33:24.463Z,1.65
2023-03-27T21:35:52.002Z,1.67
2023-03-27T21:38:19.597Z,1.63
2023-03-27T21:40:47.488Z,1.64
2023-03-27T21:43:14.828Z,1.64
2023-03-27T21:45:42.520Z,1.60
2023-03-27T21:48:10.782Z,1.62
2023-03-27T21:50:38.554Z,1.67
2023-03-27T21:53:06.036Z,1.78
2023-03-27T21:55:34.435Z,1.51
2023-03-27T21:58:01.926Z,1.21
2023-03-27T22:00:28.992Z,1.45
2023-03-27T22:02:57.235Z,1.61
2023-03-27T22:05:24.724Z,1.64
2023-03-27T22:07:52.160Z,1.89
2023-03-27T22:10:19.615Z,1.87
2023-03-27T22:12:47.057Z,1.98
2023-03-27T22:15:14.460Z,1.99
2023-03-27T22:17:42.246Z,1.92
2023-03-27T22:20:09.956Z,1.89
2023-03-27T22:22:37.477Z,1.86
2023-03-27T22:25:05.259Z,1.87
2023-03-27T22:27:32.725Z,1.80
2023-03-27T22:30:00.098Z,1.80
2023-03-27T22:32:27.489Z,1.81
2023-03-27T22:34:54.561Z,1.81
2023-03-27T22:37:24.710Z,1.80
2023-03-27T22:39:52.499Z,1.81
2023-03-27T22:42:19.852Z,1.76
2023-03-27T22:44:47.232Z,1.78
2023-03-27T22:47:14.693Z,1.76
2023-03-27T22:49:42.122Z,1.74
2023-03-27T22:52:09.540Z,1.73
2023-03-27T22:54:36.967Z,1.76
2023-03-27T22:57:04.149Z,1.76
2023-03-27T22:59:31.553Z,1.76
2023-03-27T23:01:58.819Z,1.77
2023-03-27T23:04:26.390Z,1.66
2023-03-27T23:06:53.806Z,1.20
2023-03-27T23:09:21.234Z,1.10
2023-03-27T23:11:48.702Z,1.17
2023-03-27T23:14:16.356Z,1.19
2023-03-27T23:16:43.714Z,1.17
2023-03-27T23:19:11.237Z,1.12
2023-03-27T23:21:38.602Z,1.09
2023-03-27T23:24:06.188Z,1.10
2023-03-27T23:26:33.541Z,1.01
2023-03-27T23:29:00.910Z,1.17
2023-03-27T23:31:28.317Z,1.20
2023-03-27T23:33:55.869Z,0.91
2023-03-27T23:36:25.115Z,0.83
2023-03-27T23:38:53.582Z,0.80
2023-03-27T23:41:21.084Z,0.79
2023-03-27T23:43:49.044Z,0.94
2023-03-27T23:46:16.862Z,0.76
2023-03-27T23:48:44.888Z,0.84
2023-03-27T23:51:14.643Z,0.83
2023-03-27T23:53:42.365Z,0.85
2023-03-27T23:56:10.033Z,0.91
2023-03-27T23:58:37.627Z,0.88
